• Join FlightAware (Why Join?)
  • Login
  • US Flag 
07:04AM EDT


 

Airport Tracker/Info


-or-


 

Live Flight TrackerFlight Track Log ✈ USC105 ✈ 24-Apr-2013 ✈ KBKL - KYIP

Flight Track Log - Related Links

Times and Time Zones

All times are in EDT time to prevent confusion due to time zone crossing. See the USC105 flight status page for this flight to view local times or setup timezone preferences in your user account.

Time Position Orientation Groundspeed Altitude Reporting Facility
EDT Latitude Longitude Course Direction KTS MPH feet Rate Location/Type
11:15PM 41.5394 -81.7261 319° Northwest 99 114 2,400  Level Cleveland Center
11:16PM 41.5536 -81.7678 294° West 127 146 3,100 540 Climbing Cleveland Center
11:17PM 41.5697 -81.8128 296° West 138 159 3,600 540 Climbing Cleveland Center
11:18PM 41.5839 -81.8600 292° West 135 155 4,300 600 Climbing Cleveland Center
11:19PM 41.6000 -81.9075 294° West 136 157 4,900 540 Climbing Cleveland Center
11:20PM 41.6142 -81.9550 292° West 142 163 5,500 540 Climbing Cleveland Center
11:21PM 41.6300 -82.0056 293° West 144 166 6,000 540 Climbing Cleveland Center
11:22PM 41.6461 -82.0614 291° West 150 173 6,600 540 Climbing Cleveland Center
11:23PM 41.6642 -82.1092 297° West 142 163 7,200 540 Climbing Cleveland Center
11:24PM 41.6803 -82.1594 293° West 151 174 7,700 360 Climbing Cleveland Center
11:25PM 41.6983 -82.2100 296° West 163 188 8,000 120 Climbing Cleveland Center
11:26PM 41.7144 -82.2494 299° West 168 193 8,000 -60 Level Cleveland Center
11:27PM 41.7364 -82.3083 297° West 171 197 7,900 -60 Descending Cleveland Center
11:28PM 41.7542 -82.3672 292° West 169 194 7,900  Level Cleveland Center
11:29PM 41.7722 -82.4236 293° West 167 192 7,900  Level Cleveland Center
11:30PM 41.7964 -82.4800 300° West 166 191 7,900  Level Cleveland Center
11:31PM 41.8161 -82.5361 295° West 164 189 7,900  Level Cleveland Center
11:32PM 41.8339 -82.5925 293° West 164 189 8,000  Climbing Cleveland Center
11:33PM 41.8539 -82.6461 297° West 166 191 7,900 -180 Descending Cleveland Center
11:34PM 41.8883 -82.6947 314° West 177 204 7,700 -420 Descending Cleveland Center
11:35PM 41.9167 -82.7431 308° West 184 212 7,100 -540 Descending Cleveland Center
11:36PM 41.9425 -82.8025 300° West 183 211 6,700 -480 Descending Cleveland Center
11:37PM 41.9750 -82.8511 312° West 180 207 6,200 -540 Descending Cleveland Center
11:38PM 42.0053 -82.9081 306° West 180 207 5,700 -600 Descending Cleveland Center
11:39PM 42.0372 -82.9653 307° West 182 209 5,100 -360 Descending Cleveland Center
11:40PM 42.0656 -83.0167 307° West 179 206 5,000 -120 Descending Cleveland Center
11:41PM 42.0936 -83.0653 308° West 162 186 4,900 -60 Descending Cleveland Center
11:42PM 42.1153 -83.1164 300° West 159 183 4,900  Level Cleveland Center
11:43PM 42.1275 -83.1333 314° West 159 183 4,900  Level FAA TRACON SMA TRACON (SMA)
11:43PM 42.1356 -83.1486 305° West 160 184 4,900 120 Level FAA TRACON SMA TRACON (SMA)
11:43PM 42.1456 -83.1672 306° West 160 184 5,000 120 Climbing FAA TRACON SMA TRACON (SMA)
11:44PM 42.1533 -83.1822 305° West 159 183 5,000 -180 Level FAA TRACON SMA TRACON (SMA)
11:44PM 42.1611 -83.1972 305° West 159 183 4,900 -180 Descending FAA TRACON SMA TRACON (SMA)
11:44PM 42.1708 -83.2164 304° West 160 184 4,900 120 Level FAA TRACON SMA TRACON (SMA)
11:45PM 42.1786 -83.2317 304° West 160 184 5,000 120 Climbing FAA TRACON SMA TRACON (SMA)
11:45PM 42.1864 -83.2467 305° West 160 184 5,000  Level FAA TRACON SMA TRACON (SMA)
11:45PM 42.1964 -83.2653 306° West 158 182 5,000 -180 Level FAA TRACON SMA TRACON (SMA)
11:46PM 42.2039 -83.2806 304° West 158 182 4,900  Descending FAA TRACON SMA TRACON (SMA)
11:46PM 42.2111 -83.2958 303° West 154 177 5,000 120 Climbing FAA TRACON SMA TRACON (SMA)
11:46PM 42.2194 -83.3125 304° West 151 174 5,000 -180 Level FAA TRACON SMA TRACON (SMA)
11:47PM 42.2275 -83.3258 309° West 149 171 4,900 -360 Descending FAA TRACON SMA TRACON (SMA)
11:47PM 42.2367 -83.3406 310° West 153 176 4,800 -300 Descending FAA TRACON SMA TRACON (SMA)
11:47PM 42.2478 -83.3547 317° Northwest 151 174 4,700 -480 Descending FAA TRACON SMA TRACON (SMA)
11:48PM 42.2569 -83.3667 316° Northwest 152 175 4,500 -900 Descending FAA TRACON SMA TRACON (SMA)
11:48PM 42.2667 -83.3828 309° West 159 183 4,100 -1,080 Descending FAA TRACON SMA TRACON (SMA)
11:48PM 42.2753 -83.3992 305° West 159 183 3,800 -780 Descending FAA TRACON SMA TRACON (SMA)
11:49PM 42.2831 -83.4142 305° West 159 183 3,600 -1,200 Descending FAA TRACON SMA TRACON (SMA)
11:49PM 42.2861 -83.4369 280° West 167 192 3,000 -1,380 Descending FAA TRACON SMA TRACON (SMA)
11:49PM 42.2828 -83.4556 256° West 160 184 2,700 -900 Descending FAA TRACON SMA TRACON (SMA)
11:50PM 42.2775 -83.4700 244° Southwest 130 150 2,400 -1,500 Descending FAA TRACON SMA TRACON (SMA)
11:50PM 42.2700 -83.4839 234° Southwest 110 127 1,700 -1,560 Descending FAA TRACON SMA TRACON (SMA)
11:50PM 42.2639 -83.4925 226° Southwest 104 120 1,400 -900 Descending FAA TRACON SMA TRACON (SMA)
11:51PM 42.2561 -83.5033 226° Southwest 105 121 1,100 -780 Descending FAA TRACON SMA TRACON (SMA)
11:51PM 42.2500 -83.5119 226° Southwest 102 117 900 -600 Descending FAA TRACON SMA TRACON (SMA)
11:53PM 42.2333 -83.5167 270° West  Level FlightAware Approximate
12:00AM 42.2393 -83.5310 270° West  Level Estimated